sensor_id;sensor_type;location;lat;lon;timestamp;temperature;humidity
70986;DHT22;58645;43.068;25.610;2023-06-04T00:00:44;17.60;99.90
70986;DHT22;58645;43.068;25.610;2023-06-04T00:03:10;17.60;99.90
70986;DHT22;58645;43.068;25.610;2023-06-04T00:05:35;17.60;99.90
70986;DHT22;58645;43.068;25.610;2023-06-04T00:08:01;17.70;99.90
70986;DHT22;58645;43.068;25.610;2023-06-04T00:10:27;17.70;99.90
70986;DHT22;58645;43.068;25.610;2023-06-04T00:12:52;17.70;99.90
70986;DHT22;58645;43.068;25.610;2023-06-04T00:15:18;17.70;99.90
70986;DHT22;58645;43.068;25.610;2023-06-04T00:17:44;17.80;99.90
70986;DHT22;58645;43.068;25.610;2023-06-04T00:20:10;17.80;99.90
70986;DHT22;58645;43.068;25.610;2023-06-04T00:22:36;17.80;99.90
70986;DHT22;58645;43.068;25.610;2023-06-04T00:25:02;17.90;99.90
70986;DHT22;58645;43.068;25.610;2023-06-04T00:27:28;17.90;99.90
70986;DHT22;58645;43.068;25.610;2023-06-04T00:29:54;17.90;99.90
70986;DHT22;58645;43.068;25.610;2023-06-04T00:32:20;17.90;99.90
70986;DHT22;58645;43.068;25.610;2023-06-04T00:34:53;18.00;99.90
70986;DHT22;58645;43.068;25.610;2023-06-04T00:37:19;17.90;99.90
70986;DHT22;58645;43.068;25.610;2023-06-04T00:39:45;18.00;99.90
70986;DHT22;58645;43.068;25.610;2023-06-04T00:42:11;18.00;99.90
70986;DHT22;58645;43.068;25.610;2023-06-04T00:44:36;18.00;99.90
70986;DHT22;58645;43.068;25.610;2023-06-04T00:47:02;18.00;99.90
70986;DHT22;58645;43.068;25.610;2023-06-04T00:49:28;17.90;99.90
70986;DHT22;58645;43.068;25.610;2023-06-04T00:51:54;17.90;99.90
70986;DHT22;58645;43.068;25.610;2023-06-04T00:54:20;17.90;99.90
70986;DHT22;58645;43.068;25.610;2023-06-04T00:56:47;17.90;99.90
70986;DHT22;58645;43.068;25.610;2023-06-04T00:59:13;18.00;99.90
70986;DHT22;58645;43.068;25.610;2023-06-04T01:02:11;17.90;99.90
70986;DHT22;58645;43.068;25.610;2023-06-04T01:04:51;17.90;99.90
70986;DHT22;58645;43.068;25.610;2023-06-04T01:07:19;17.80;99.90
70986;DHT22;58645;43.068;25.610;2023-06-04T01:09:45;17.80;99.90
70986;DHT22;58645;43.068;25.610;2023-06-04T01:12:11;17.80;99.90
70986;DHT22;58645;43.068;25.610;2023-06-04T01:14:37;17.70;99.90
70986;DHT22;58645;43.068;25.610;2023-06-04T01:17:25;17.70;99.90
70986;DHT22;58645;43.068;25.610;2023-06-04T01:20:19;17.60;99.90
70986;DHT22;58645;43.068;25.610;2023-06-04T01:22:52;17.60;99.90
70986;DHT22;58645;43.068;25.610;2023-06-04T01:25:27;17.60;99.90
70986;DHT22;58645;43.068;25.610;2023-06-04T01:27:57;17.50;99.90
70986;DHT22;58645;43.068;25.610;2023-06-04T01:30:26;17.50;99.90
70986;DHT22;58645;43.068;25.610;2023-06-04T01:32:54;17.40;99.90
70986;DHT22;58645;43.068;25.610;2023-06-04T01:35:20;17.30;99.90
70986;DHT22;58645;43.068;25.610;2023-06-04T01:37:46;17.30;99.90
70986;DHT22;58645;43.068;25.610;2023-06-04T01:40:13;17.30;99.90
70986;DHT22;58645;43.068;25.610;2023-06-04T01:42:40;17.20;99.90
70986;DHT22;58645;43.068;25.610;2023-06-04T01:45:06;17.20;99.90
70986;DHT22;58645;43.068;25.610;2023-06-04T01:47:32;17.20;99.90
70986;DHT22;58645;43.068;25.610;2023-06-04T01:49:58;17.20;99.90
70986;DHT22;58645;43.068;25.610;2023-06-04T01:52:23;17.10;99.90
70986;DHT22;58645;43.068;25.610;2023-06-04T01:54:50;17.10;99.90
70986;DHT22;58645;43.068;25.610;2023-06-04T01:57:19;17.00;99.90
70986;DHT22;58645;43.068;25.610;2023-06-04T01:59:45;17.00;99.90
70986;DHT22;58645;43.068;25.610;2023-06-04T02:02:12;17.00;99.90
70986;DHT22;58645;43.068;25.610;2023-06-04T02:04:38;17.00;99.90
70986;DHT22;58645;43.068;25.610;2023-06-04T02:07:10;17.00;99.90
70986;DHT22;58645;43.068;25.610;2023-06-04T02:09:37;16.90;99.90
70986;DHT22;58645;43.068;25.610;2023-06-04T02:12:03;16.80;99.90
70986;DHT22;58645;43.068;25.610;2023-06-04T02:14:29;16.80;99.90
70986;DHT22;58645;43.068;25.610;2023-06-04T02:16:55;16.70;99.90
70986;DHT22;58645;43.068;25.610;2023-06-04T02:19:26;16.80;99.90
70986;DHT22;58645;43.068;25.610;2023-06-04T02:21:55;16.70;99.90
70986;DHT22;58645;43.068;25.610;2023-06-04T02:24:21;16.70;99.90
70986;DHT22;58645;43.068;25.610;2023-06-04T02:26:47;16.60;99.90
70986;DHT22;58645;43.068;25.610;2023-06-04T02:29:13;16.50;99.90
70986;DHT22;58645;43.068;25.610;2023-06-04T02:31:39;16.60;99.90
70986;DHT22;58645;43.068;25.610;2023-06-04T02:34:04;16.50;99.90
70986;DHT22;58645;43.068;25.610;2023-06-04T02:36:30;16.50;99.90
70986;DHT22;58645;43.068;25.610;2023-06-04T02:38:56;16.50;99.90
70986;DHT22;58645;43.068;25.610;2023-06-04T02:41:22;16.40;99.90
70986;DHT22;58645;43.068;25.610;2023-06-04T02:43:48;16.40;99.90
70986;DHT22;58645;43.068;25.610;2023-06-04T02:46:14;16.40;99.90
70986;DHT22;58645;43.068;25.610;2023-06-04T02:48:40;16.40;99.90
70986;DHT22;58645;43.068;25.610;2023-06-04T02:51:05;16.50;99.90
70986;DHT22;58645;43.068;25.610;2023-06-04T02:53:31;16.50;99.90
70986;DHT22;58645;43.068;25.610;2023-06-04T02:55:57;16.50;99.90
70986;DHT22;58645;43.068;25.610;2023-06-04T02:58:25;16.50;99.90
70986;DHT22;58645;43.068;25.610;2023-06-04T03:00:52;16.50;99.90
70986;DHT22;58645;43.068;25.610;2023-06-04T03:03:18;16.50;99.90
70986;DHT22;58645;43.068;25.610;2023-06-04T03:05:44;16.50;99.90
70986;DHT22;58645;43.068;25.610;2023-06-04T03:08:09;16.50;99.90
70986;DHT22;58645;43.068;25.610;2023-06-04T03:10:36;16.40;99.90
70986;DHT22;58645;43.068;25.610;2023-06-04T03:13:03;16.40;99.90
70986;DHT22;58645;43.068;25.610;2023-06-04T03:15:29;16.40;99.90
70986;DHT22;58645;43.068;25.610;2023-06-04T03:17:54;16.50;99.90
70986;DHT22;58645;43.068;25.610;2023-06-04T03:20:21;16.50;99.90
70986;DHT22;58645;43.068;25.610;2023-06-04T03:22:52;16.50;99.90
70986;DHT22;58645;43.068;25.610;2023-06-04T03:25:18;16.50;99.90
70986;DHT22;58645;43.068;25.610;2023-06-04T03:27:43;16.50;99.90
70986;DHT22;58645;43.068;25.610;2023-06-04T03:30:10;16.50;99.90
70986;DHT22;58645;43.068;25.610;2023-06-04T03:32:35;16.50;99.90
70986;DHT22;58645;43.068;25.610;2023-06-04T03:35:01;16.60;99.90
70986;DHT22;58645;43.068;25.610;2023-06-04T03:37:28;16.60;99.90
70986;DHT22;58645;43.068;25.610;2023-06-04T03:39:54;16.60;99.90
70986;DHT22;58645;43.068;25.610;2023-06-04T03:42:20;16.50;99.90
70986;DHT22;58645;43.068;25.610;2023-06-04T03:44:46;16.60;99.90
70986;DHT22;58645;43.068;25.610;2023-06-04T03:47:11;16.50;99.90
70986;DHT22;58645;43.068;25.610;2023-06-04T03:49:37;16.60;99.90
70986;DHT22;58645;43.068;25.610;2023-06-04T03:52:03;16.60;99.90
70986;DHT22;58645;43.068;25.610;2023-06-04T03:54:29;16.60;99.90
70986;DHT22;58645;43.068;25.610;2023-06-04T03:56:56;16.50;99.90
70986;DHT22;58645;43.068;25.610;2023-06-04T03:59:21;16.50;99.90
70986;DHT22;58645;43.068;25.610;2023-06-04T04:01:47;16.50;99.90
70986;DHT22;58645;43.068;25.610;2023-06-04T04:04:13;16.40;99.90
70986;DHT22;58645;43.068;25.610;2023-06-04T04:06:39;16.30;99.90
70986;DHT22;58645;43.068;25.610;2023-06-04T04:09:05;16.30;99.90
70986;DHT22;58645;43.068;25.610;2023-06-04T04:11:31;16.30;99.90
70986;DHT22;58645;43.068;25.610;2023-06-04T04:13:57;16.20;99.90
70986;DHT22;58645;43.068;25.610;2023-06-04T04:16:23;16.20;99.90
70986;DHT22;58645;43.068;25.610;2023-06-04T04:18:49;16.20;99.90
70986;DHT22;58645;43.068;25.610;2023-06-04T04:21:15;16.30;99.90
70986;DHT22;58645;43.068;25.610;2023-06-04T04:23:40;15.80;99.90
70986;DHT22;58645;43.068;25.610;2023-06-04T04:26:07;16.30;99.90
70986;DHT22;58645;43.068;25.610;2023-06-04T04:28:32;16.40;99.90
70986;DHT22;58645;43.068;25.610;2023-06-04T04:31:00;16.40;99.90
70986;DHT22;58645;43.068;25.610;2023-06-04T04:33:28;16.40;99.90
70986;DHT22;58645;43.068;25.610;2023-06-04T04:35:58;16.40;99.90
70986;DHT22;58645;43.068;25.610;2023-06-04T04:38:27;16.40;99.90
70986;DHT22;58645;43.068;25.610;2023-06-04T04:40:54;16.50;99.90
70986;DHT22;58645;43.068;25.610;2023-06-04T04:43:33;16.50;99.90
70986;DHT22;58645;43.068;25.610;2023-06-04T04:45:59;16.50;99.90
70986;DHT22;58645;43.068;25.610;2023-06-04T04:48:25;16.50;99.90
70986;DHT22;58645;43.068;25.610;2023-06-04T04:50:52;16.60;99.90
70986;DHT22;58645;43.068;25.610;2023-06-04T04:53:18;16.50;99.90
70986;DHT22;58645;43.068;25.610;2023-06-04T04:55:44;16.50;99.90
70986;DHT22;58645;43.068;25.610;2023-06-04T04:58:09;16.30;99.90
70986;DHT22;58645;43.068;25.610;2023-06-04T05:00:35;16.30;99.90
70986;DHT22;58645;43.068;25.610;2023-06-04T05:03:01;16.30;99.90
70986;DHT22;58645;43.068;25.610;2023-06-04T05:05:27;16.30;99.90
70986;DHT22;58645;43.068;25.610;2023-06-04T05:07:52;16.30;99.90
70986;DHT22;58645;43.068;25.610;2023-06-04T05:10:18;16.20;99.90
70986;DHT22;58645;43.068;25.610;2023-06-04T05:12:56;16.20;99.90
70986;DHT22;58645;43.068;25.610;2023-06-04T05:15:22;16.30;99.90
70986;DHT22;58645;43.068;25.610;2023-06-04T05:17:48;16.30;99.90
70986;DHT22;58645;43.068;25.610;2023-06-04T05:20:14;16.30;99.90
70986;DHT22;58645;43.068;25.610;2023-06-04T05:22:41;16.40;99.90
70986;DHT22;58645;43.068;25.610;2023-06-04T05:25:08;16.50;99.90
70986;DHT22;58645;43.068;25.610;2023-06-04T05:27:35;16.60;99.90
70986;DHT22;58645;43.068;25.610;2023-06-04T05:30:02;16.60;99.90
70986;DHT22;58645;43.068;25.610;2023-06-04T05:32:28;16.70;99.90
70986;DHT22;58645;43.068;25.610;2023-06-04T05:34:58;16.80;99.90
70986;DHT22;58645;43.068;25.610;2023-06-04T05:37:27;16.90;99.90
70986;DHT22;58645;43.068;25.610;2023-06-04T05:39:55;17.00;99.90
70986;DHT22;58645;43.068;25.610;2023-06-04T05:42:21;17.10;99.90
70986;DHT22;58645;43.068;25.610;2023-06-04T05:44:46;17.30;99.90
70986;DHT22;58645;43.068;25.610;2023-06-04T05:47:12;17.40;99.90
70986;DHT22;58645;43.068;25.610;2023-06-04T05:49:38;17.60;99.90
70986;DHT22;58645;43.068;25.610;2023-06-04T05:52:04;17.70;99.90
70986;DHT22;58645;43.068;25.610;2023-06-04T05:54:30;17.70;99.90
70986;DHT22;58645;43.068;25.610;2023-06-04T05:56:56;17.80;99.90
70986;DHT22;58645;43.068;25.610;2023-06-04T05:59:22;17.80;99.90
70986;DHT22;58645;43.068;25.610;2023-06-04T06:01:48;17.90;99.90
70986;DHT22;58645;43.068;25.610;2023-06-04T06:04:14;18.10;99.90
70986;DHT22;58645;43.068;25.610;2023-06-04T06:06:41;18.30;99.90
70986;DHT22;58645;43.068;25.610;2023-06-04T06:09:10;18.40;99.90
70986;DHT22;58645;43.068;25.610;2023-06-04T06:11:36;18.60;99.90
70986;DHT22;58645;43.068;25.610;2023-06-04T06:14:02;19.00;99.90
70986;DHT22;58645;43.068;25.610;2023-06-04T06:16:27;19.30;99.90
70986;DHT22;58645;43.068;25.610;2023-06-04T06:18:53;19.70;99.90
70986;DHT22;58645;43.068;25.610;2023-06-04T06:21:19;20.30;99.90
70986;DHT22;58645;43.068;25.610;2023-06-04T06:23:45;20.60;99.90
70986;DHT22;58645;43.068;25.610;2023-06-04T06:26:11;20.80;99.90
70986;DHT22;58645;43.068;25.610;2023-06-04T06:28:37;21.00;99.90
70986;DHT22;58645;43.068;25.610;2023-06-04T06:31:03;21.30;99.90
70986;DHT22;58645;43.068;25.610;2023-06-04T06:33:30;21.50;99.90
70986;DHT22;58645;43.068;25.610;2023-06-04T06:35:57;21.50;99.90
70986;DHT22;58645;43.068;25.610;2023-06-04T06:38:26;21.50;99.90
70986;DHT22;58645;43.068;25.610;2023-06-04T06:40:52;21.30;99.90
70986;DHT22;58645;43.068;25.610;2023-06-04T06:43:18;21.50;99.90
70986;DHT22;58645;43.068;25.610;2023-06-04T06:45:44;21.80;99.90
70986;DHT22;58645;43.068;25.610;2023-06-04T06:48:10;21.90;99.90
70986;DHT22;58645;43.068;25.610;2023-06-04T06:50:35;21.90;99.90
70986;DHT22;58645;43.068;25.610;2023-06-04T06:53:02;22.00;99.90
70986;DHT22;58645;43.068;25.610;2023-06-04T06:55:28;22.20;99.90
70986;DHT22;58645;43.068;25.610;2023-06-04T06:57:54;22.40;99.90
70986;DHT22;58645;43.068;25.610;2023-06-04T07:00:19;22.40;99.90
70986;DHT22;58645;43.068;25.610;2023-06-04T07:02:45;22.30;99.90
70986;DHT22;58645;43.068;25.610;2023-06-04T07:05:11;22.30;99.90
70986;DHT22;58645;43.068;25.610;2023-06-04T07:07:39;22.10;99.90
70986;DHT22;58645;43.068;25.610;2023-06-04T07:10:05;22.00;99.90
70986;DHT22;58645;43.068;25.610;2023-06-04T07:12:31;22.00;99.90
70986;DHT22;58645;43.068;25.610;2023-06-04T07:14:56;21.90;99.90
70986;DHT22;58645;43.068;25.610;2023-06-04T07:17:22;21.70;99.90
70986;DHT22;58645;43.068;25.610;2023-06-04T07:19:48;21.60;99.90
70986;DHT22;58645;43.068;25.610;2023-06-04T07:22:13;21.60;99.90
70986;DHT22;58645;43.068;25.610;2023-06-04T07:24:41;21.60;99.90
70986;DHT22;58645;43.068;25.610;2023-06-04T07:27:12;21.80;99.90
70986;DHT22;58645;43.068;25.610;2023-06-04T07:29:38;21.80;99.90
70986;DHT22;58645;43.068;25.610;2023-06-04T07:32:04;21.70;99.90
70986;DHT22;58645;43.068;25.610;2023-06-04T07:34:29;21.50;99.90
70986;DHT22;58645;43.068;25.610;2023-06-04T07:36:55;21.50;99.90
70986;DHT22;58645;43.068;25.610;2023-06-04T07:39:21;21.40;99.90
70986;DHT22;58645;43.068;25.610;2023-06-04T07:41:47;21.20;99.90
70986;DHT22;58645;43.068;25.610;2023-06-04T07:44:13;21.20;99.90
70986;DHT22;58645;43.068;25.610;2023-06-04T07:46:38;21.40;99.90
70986;DHT22;58645;43.068;25.610;2023-06-04T07:49:04;21.60;99.90
70986;DHT22;58645;43.068;25.610;2023-06-04T07:51:30;21.70;99.90
70986;DHT22;58645;43.068;25.610;2023-06-04T07:53:56;21.60;99.90
70986;DHT22;58645;43.068;25.610;2023-06-04T07:56:21;21.80;99.90
70986;DHT22;58645;43.068;25.610;2023-06-04T07:58:47;22.20;99.90
70986;DHT22;58645;43.068;25.610;2023-06-04T08:01:13;22.40;99.90
70986;DHT22;58645;43.068;25.610;2023-06-04T08:03:39;22.70;99.90
70986;DHT22;58645;43.068;25.610;2023-06-04T08:06:07;22.70;99.90
70986;DHT22;58645;43.068;25.610;2023-06-04T08:08:32;22.60;99.90
70986;DHT22;58645;43.068;25.610;2023-06-04T08:10:59;22.60;99.90
70986;DHT22;58645;43.068;25.610;2023-06-04T08:13:25;22.80;99.90
70986;DHT22;58645;43.068;25.610;2023-06-04T08:15:51;22.60;99.90
70986;DHT22;58645;43.068;25.610;2023-06-04T08:18:16;22.50;99.90
70986;DHT22;58645;43.068;25.610;2023-06-04T08:20:42;22.20;99.90
70986;DHT22;58645;43.068;25.610;2023-06-04T08:23:08;22.20;99.90
70986;DHT22;58645;43.068;25.610;2023-06-04T08:25:34;22.20;99.90
70986;DHT22;58645;43.068;25.610;2023-06-04T08:27:59;22.30;99.90
70986;DHT22;58645;43.068;25.610;2023-06-04T08:30:25;22.40;99.90
70986;DHT22;58645;43.068;25.610;2023-06-04T08:32:53;22.40;99.90
70986;DHT22;58645;43.068;25.610;2023-06-04T08:35:19;22.40;99.90
70986;DHT22;58645;43.068;25.610;2023-06-04T08:37:44;22.40;99.90
70986;DHT22;58645;43.068;25.610;2023-06-04T08:40:10;22.90;99.90
70986;DHT22;58645;43.068;25.610;2023-06-04T08:42:42;23.30;99.90
70986;DHT22;58645;43.068;25.610;2023-06-04T08:45:11;23.30;99.90
70986;DHT22;58645;43.068;25.610;2023-06-04T08:47:48;23.30;99.90
70986;DHT22;58645;43.068;25.610;2023-06-04T08:50:17;23.00;99.90
70986;DHT22;58645;43.068;25.610;2023-06-04T08:52:43;22.80;99.90
70986;DHT22;58645;43.068;25.610;2023-06-04T08:55:11;23.00;99.90
70986;DHT22;58645;43.068;25.610;2023-06-04T08:57:39;23.10;99.90
70986;DHT22;58645;43.068;25.610;2023-06-04T09:00:06;23.20;99.90
70986;DHT22;58645;43.068;25.610;2023-06-04T09:02:35;23.20;99.90
70986;DHT22;58645;43.068;25.610;2023-06-04T09:05:05;23.00;99.90
70986;DHT22;58645;43.068;25.610;2023-06-04T09:07:39;22.90;99.90
70986;DHT22;58645;43.068;25.610;2023-06-04T09:10:07;23.00;99.90
70986;DHT22;58645;43.068;25.610;2023-06-04T09:12:36;22.90;99.90
70986;DHT22;58645;43.068;25.610;2023-06-04T09:15:03;23.00;99.90
70986;DHT22;58645;43.068;25.610;2023-06-04T09:17:28;22.80;99.90
70986;DHT22;58645;43.068;25.610;2023-06-04T09:19:55;22.70;99.90
70986;DHT22;58645;43.068;25.610;2023-06-04T09:22:40;22.90;99.90
70986;DHT22;58645;43.068;25.610;2023-06-04T09:25:07;23.10;99.90
70986;DHT22;58645;43.068;25.610;2023-06-04T09:27:44;23.10;99.80
70986;DHT22;58645;43.068;25.610;2023-06-04T09:30:09;23.20;99.80
70986;DHT22;58645;43.068;25.610;2023-06-04T09:32:35;23.40;99.00
70986;DHT22;58645;43.068;25.610;2023-06-04T09:37:55;24.00;97.00
70986;DHT22;58645;43.068;25.610;2023-06-04T09:40:21;24.50;95.90
70986;DHT22;58645;43.068;25.610;2023-06-04T09:42:49;24.70;94.70
70986;DHT22;58645;43.068;25.610;2023-06-04T09:45:34;25.30;93.00
70986;DHT22;58645;43.068;25.610;2023-06-04T09:48:03;25.70;90.00
70986;DHT22;58645;43.068;25.610;2023-06-04T09:50:33;25.90;86.80
70986;DHT22;58645;43.068;25.610;2023-06-04T09:53:00;26.00;86.50
70986;DHT22;58645;43.068;25.610;2023-06-04T09:55:27;26.00;85.80
70986;DHT22;58645;43.068;25.610;2023-06-04T09:57:53;26.10;84.10
70986;DHT22;58645;43.068;25.610;2023-06-04T10:00:21;26.40;83.70
70986;DHT22;58645;43.068;25.610;2023-06-04T10:02:49;26.80;82.70
70986;DHT22;58645;43.068;25.610;2023-06-04T10:05:15;26.70;80.00
70986;DHT22;58645;43.068;25.610;2023-06-04T10:07:45;26.80;77.90
70986;DHT22;58645;43.068;25.610;2023-06-04T10:10:15;26.80;76.00
70986;DHT22;58645;43.068;25.610;2023-06-04T10:12:42;27.00;77.10
70986;DHT22;58645;43.068;25.610;2023-06-04T10:15:12;27.20;76.10
70986;DHT22;58645;43.068;25.610;2023-06-04T10:17:39;26.80;73.10
70986;DHT22;58645;43.068;25.610;2023-06-04T10:20:07;26.50;74.70
70986;DHT22;58645;43.068;25.610;2023-06-04T10:22:35;26.70;74.60
70986;DHT22;58645;43.068;25.610;2023-06-04T10:25:01;26.70;74.70
70986;DHT22;58645;43.068;25.610;2023-06-04T10:27:31;26.90;74.00
70986;DHT22;58645;43.068;25.610;2023-06-04T10:29:57;27.00;73.00
70986;DHT22;58645;43.068;25.610;2023-06-04T10:32:27;26.80;73.70
70986;DHT22;58645;43.068;25.610;2023-06-04T10:34:53;26.90;73.30
70986;DHT22;58645;43.068;25.610;2023-06-04T10:37:23;27.10;71.60
70986;DHT22;58645;43.068;25.610;2023-06-04T10:39:53;27.50;71.20
70986;DHT22;58645;43.068;25.610;2023-06-04T10:42:19;28.00;70.00
70986;DHT22;58645;43.068;25.610;2023-06-04T10:44:51;28.20;68.20
70986;DHT22;58645;43.068;25.610;2023-06-04T10:47:24;28.10;66.70
70986;DHT22;58645;43.068;25.610;2023-06-04T10:49:50;28.10;68.30
70986;DHT22;58645;43.068;25.610;2023-06-04T10:52:17;28.40;68.30
70986;DHT22;58645;43.068;25.610;2023-06-04T10:54:44;29.10;65.30
70986;DHT22;58645;43.068;25.610;2023-06-04T10:57:12;29.50;65.20
70986;DHT22;58645;43.068;25.610;2023-06-04T10:59:38;29.50;61.10
70986;DHT22;58645;43.068;25.610;2023-06-04T11:02:08;29.40;61.30
70986;DHT22;58645;43.068;25.610;2023-06-04T11:04:35;29.30;61.40
70986;DHT22;58645;43.068;25.610;2023-06-04T11:07:06;29.90;61.90
70986;DHT22;58645;43.068;25.610;2023-06-04T11:09:48;30.20;60.00
70986;DHT22;58645;43.068;25.610;2023-06-04T11:12:15;30.40;56.80
70986;DHT22;58645;43.068;25.610;2023-06-04T11:14:40;30.20;58.30
70986;DHT22;58645;43.068;25.610;2023-06-04T11:17:10;29.70;57.60
70986;DHT22;58645;43.068;25.610;2023-06-04T11:19:37;29.90;56.90
70986;DHT22;58645;43.068;25.610;2023-06-04T11:22:10;29.70;56.20
70986;DHT22;58645;43.068;25.610;2023-06-04T11:24:36;29.50;58.00
70986;DHT22;58645;43.068;25.610;2023-06-04T11:27:01;29.30;58.50
70986;DHT22;58645;43.068;25.610;2023-06-04T11:29:28;29.30;58.40
70986;DHT22;58645;43.068;25.610;2023-06-04T11:31:54;29.10;58.10
70986;DHT22;58645;43.068;25.610;2023-06-04T11:36:50;28.50;59.40
70986;DHT22;58645;43.068;25.610;2023-06-04T11:39:19;28.20;58.80
70986;DHT22;58645;43.068;25.610;2023-06-04T11:41:45;27.90;59.60
70986;DHT22;58645;43.068;25.610;2023-06-04T11:44:12;27.70;60.90
70986;DHT22;58645;43.068;25.610;2023-06-04T11:46:42;27.60;61.50
70986;DHT22;58645;43.068;25.610;2023-06-04T11:49:12;27.90;62.50
70986;DHT22;58645;43.068;25.610;2023-06-04T11:51:44;28.30;61.50
70986;DHT22;58645;43.068;25.610;2023-06-04T11:54:10;27.80;60.90
70986;DHT22;58645;43.068;25.610;2023-06-04T11:56:36;27.60;62.60
70986;DHT22;58645;43.068;25.610;2023-06-04T11:59:02;27.50;63.00
70986;DHT22;58645;43.068;25.610;2023-06-04T12:01:27;27.10;63.10
70986;DHT22;58645;43.068;25.610;2023-06-04T12:03:56;26.80;62.60
70986;DHT22;58645;43.068;25.610;2023-06-04T12:06:21;26.70;63.60
70986;DHT22;58645;43.068;25.610;2023-06-04T12:08:49;26.70;65.20
70986;DHT22;58645;43.068;25.610;2023-06-04T12:11:32;26.90;64.70
70986;DHT22;58645;43.068;25.610;2023-06-04T12:14:00;27.00;64.80
70986;DHT22;58645;43.068;25.610;2023-06-04T12:16:26;27.30;65.30
70986;DHT22;58645;43.068;25.610;2023-06-04T12:21:32;28.30;61.40
70986;DHT22;58645;43.068;25.610;2023-06-04T12:24:09;28.00;61.40
70986;DHT22;58645;43.068;25.610;2023-06-04T12:26:36;28.00;61.50
70986;DHT22;58645;43.068;25.610;2023-06-04T12:29:10;28.20;61.50
70986;DHT22;58645;43.068;25.610;2023-06-04T12:31:36;28.50;59.80
70986;DHT22;58645;43.068;25.610;2023-06-04T12:34:02;28.20;59.00
70986;DHT22;58645;43.068;25.610;2023-06-04T12:36:28;28.00;60.80
70986;DHT22;58645;43.068;25.610;2023-06-04T12:38:58;27.60;61.20
70986;DHT22;58645;43.068;25.610;2023-06-04T12:41:25;27.40;61.20
70986;DHT22;58645;43.068;25.610;2023-06-04T12:43:51;27.50;61.30
70986;DHT22;58645;43.068;25.610;2023-06-04T12:46:17;27.30;62.10
70986;DHT22;58645;43.068;25.610;2023-06-04T12:48:43;26.80;61.40
70986;DHT22;58645;43.068;25.610;2023-06-04T12:51:09;27.10;60.70
70986;DHT22;58645;43.068;25.610;2023-06-04T12:53:41;27.00;60.70
70986;DHT22;58645;43.068;25.610;2023-06-04T12:56:07;26.30;62.00
70986;DHT22;58645;43.068;25.610;2023-06-04T12:58:33;26.20;64.50
70986;DHT22;58645;43.068;25.610;2023-06-04T13:00:59;26.10;63.90
70986;DHT22;58645;43.068;25.610;2023-06-04T13:03:25;25.90;64.20
70986;DHT22;58645;43.068;25.610;2023-06-04T13:05:51;25.50;64.70
70986;DHT22;58645;43.068;25.610;2023-06-04T13:08:19;25.10;65.80
70986;DHT22;58645;43.068;25.610;2023-06-04T13:10:50;25.30;66.10
70986;DHT22;58645;43.068;25.610;2023-06-04T13:13:16;25.50;65.70
70986;DHT22;58645;43.068;25.610;2023-06-04T13:15:42;26.00;65.10
70986;DHT22;58645;43.068;25.610;2023-06-04T13:18:09;26.80;63.20
70986;DHT22;58645;43.068;25.610;2023-06-04T13:20:36;27.30;62.40
70986;DHT22;58645;43.068;25.610;2023-06-04T13:23:02;27.70;60.90
70986;DHT22;58645;43.068;25.610;2023-06-04T13:25:28;27.60;59.90
70986;DHT22;58645;43.068;25.610;2023-06-04T13:27:54;27.10;61.20
70986;DHT22;58645;43.068;25.610;2023-06-04T13:30:21;26.90;61.80
70986;DHT22;58645;43.068;25.610;2023-06-04T13:32:48;26.70;61.70
70986;DHT22;58645;43.068;25.610;2023-06-04T13:35:13;26.20;62.90
70986;DHT22;58645;43.068;25.610;2023-06-04T13:37:39;26.00;64.40
70986;DHT22;58645;43.068;25.610;2023-06-04T13:40:05;25.90;64.00
70986;DHT22;58645;43.068;25.610;2023-06-04T13:42:32;26.00;63.90
70986;DHT22;58645;43.068;25.610;2023-06-04T13:44:57;26.10;63.70
70986;DHT22;58645;43.068;25.610;2023-06-04T13:47:24;26.00;63.70
70986;DHT22;58645;43.068;25.610;2023-06-04T13:49:51;25.90;63.20
70986;DHT22;58645;43.068;25.610;2023-06-04T13:52:16;25.80;61.80
70986;DHT22;58645;43.068;25.610;2023-06-04T13:54:43;25.70;63.20
70986;DHT22;58645;43.068;25.610;2023-06-04T13:57:09;25.40;62.70
70986;DHT22;58645;43.068;25.610;2023-06-04T13:59:38;25.10;64.20
70986;DHT22;58645;43.068;25.610;2023-06-04T14:02:04;25.10;65.30
70986;DHT22;58645;43.068;25.610;2023-06-04T14:04:30;25.00;65.00
70986;DHT22;58645;43.068;25.610;2023-06-04T14:06:56;25.10;66.20
70986;DHT22;58645;43.068;25.610;2023-06-04T14:09:21;24.90;65.90
70986;DHT22;58645;43.068;25.610;2023-06-04T14:11:47;24.90;66.20
70986;DHT22;58645;43.068;25.610;2023-06-04T14:14:20;24.90;66.00
70986;DHT22;58645;43.068;25.610;2023-06-04T14:16:49;24.90;65.40
70986;DHT22;58645;43.068;25.610;2023-06-04T14:19:14;24.80;64.90
70986;DHT22;58645;43.068;25.610;2023-06-04T14:21:44;24.80;65.90
70986;DHT22;58645;43.068;25.610;2023-06-04T14:24:10;24.80;66.10
70986;DHT22;58645;43.068;25.610;2023-06-04T14:26:37;24.80;66.30
70986;DHT22;58645;43.068;25.610;2023-06-04T14:29:03;24.80;66.70
70986;DHT22;58645;43.068;25.610;2023-06-04T14:31:29;24.80;67.30
70986;DHT22;58645;43.068;25.610;2023-06-04T14:33:54;24.80;67.70
70986;DHT22;58645;43.068;25.610;2023-06-04T14:36:20;24.70;68.40
70986;DHT22;58645;43.068;25.610;2023-06-04T14:38:46;24.80;68.10
70986;DHT22;58645;43.068;25.610;2023-06-04T14:41:14;24.70;68.10
70986;DHT22;58645;43.068;25.610;2023-06-04T14:43:39;24.70;68.60
70986;DHT22;58645;43.068;25.610;2023-06-04T14:46:05;24.70;68.90
70986;DHT22;58645;43.068;25.610;2023-06-04T14:48:31;24.70;68.40
70986;DHT22;58645;43.068;25.610;2023-06-04T14:50:56;24.80;68.30
70986;DHT22;58645;43.068;25.610;2023-06-04T14:53:23;24.80;68.50
70986;DHT22;58645;43.068;25.610;2023-06-04T14:55:49;24.80;67.60
70986;DHT22;58645;43.068;25.610;2023-06-04T14:58:15;24.70;70.20
70986;DHT22;58645;43.068;25.610;2023-06-04T15:00:44;24.50;76.00
70986;DHT22;58645;43.068;25.610;2023-06-04T15:03:09;24.30;77.70
70986;DHT22;58645;43.068;25.610;2023-06-04T15:05:36;24.00;79.90
70986;DHT22;58645;43.068;25.610;2023-06-04T15:08:01;23.70;82.50
70986;DHT22;58645;43.068;25.610;2023-06-04T15:10:27;23.40;84.30
70986;DHT22;58645;43.068;25.610;2023-06-04T15:12:53;23.30;85.20
70986;DHT22;58645;43.068;25.610;2023-06-04T15:15:19;23.10;86.10
70986;DHT22;58645;43.068;25.610;2023-06-04T15:17:44;23.00;86.90
70986;DHT22;58645;43.068;25.610;2023-06-04T15:20:10;22.70;86.80
70986;DHT22;58645;43.068;25.610;2023-06-04T15:22:36;22.60;87.00